sensor_id;sensor_type;location;lat;lon;timestamp;pressure;altitude;pressure_sealevel;temperature;humidity
3780;BME280;1905;52.482;9.802;2022-09-21T00:01:28;102083.66;;;9.31;78.46
3780;BME280;1905;52.482;9.802;2022-09-21T00:03:58;102082.81;;;9.29;78.19
3780;BME280;1905;52.482;9.802;2022-09-21T00:06:28;102083.69;;;9.29;77.34
3780;BME280;1905;52.482;9.802;2022-09-21T00:08:57;102086.34;;;9.28;78.44
3780;BME280;1905;52.482;9.802;2022-09-21T00:11:27;102083.78;;;9.22;77.69
3780;BME280;1905;52.482;9.802;2022-09-21T00:13:56;102087.31;;;9.22;78.46
3780;BME280;1905;52.482;9.802;2022-09-21T00:16:27;102083.84;;;9.19;78.46
3780;BME280;1905;52.482;9.802;2022-09-21T00:18:54;102083.00;;;9.17;78.23
3780;BME280;1905;52.482;9.802;2022-09-21T00:21:22;102084.84;;;9.12;78.00
3780;BME280;1905;52.482;9.802;2022-09-21T00:23:50;102090.16;;;9.09;78.10
3780;BME280;1905;52.482;9.802;2022-09-21T00:26:21;102084.91;;;9.07;78.25
3780;BME280;1905;52.482;9.802;2022-09-21T00:28:51;102084.91;;;9.06;77.95
3780;BME280;1905;52.482;9.802;2022-09-21T00:31:20;102084.97;;;9.03;77.92
3780;BME280;1905;52.482;9.802;2022-09-21T00:33:48;102092.91;;;8.99;78.10
3780;BME280;1905;52.482;9.802;2022-09-21T00:36:17;102092.06;;;8.97;78.66
3780;BME280;1905;52.482;9.802;2022-09-21T00:38:48;102086.84;;;8.96;77.61
3780;BME280;1905;52.482;9.802;2022-09-21T00:41:16;102088.63;;;8.92;77.86
3780;BME280;1905;52.482;9.802;2022-09-21T00:43:48;102087.78;;;8.90;78.08
3780;BME280;1905;52.482;9.802;2022-09-21T00:46:21;102090.47;;;8.87;78.33
3780;BME280;1905;52.482;9.802;2022-09-21T00:48:52;102094.91;;;8.84;78.07
3780;BME280;1905;52.482;9.802;2022-09-21T00:51:20;102096.63;;;8.86;78.24
3780;BME280;1905;52.482;9.802;2022-09-21T00:53:53;102094.94;;;8.82;77.98
3780;BME280;1905;52.482;9.802;2022-09-21T00:56:23;102092.38;;;8.76;78.34
3780;BME280;1905;52.482;9.802;2022-09-21T00:58:53;102096.84;;;8.71;78.03
3780;BME280;1905;52.482;9.802;2022-09-21T01:01:21;102100.31;;;8.73;78.20
3780;BME280;1905;52.482;9.802;2022-09-21T01:03:51;102102.97;;;8.70;78.47
3780;BME280;1905;52.482;9.802;2022-09-21T01:06:21;102096.91;;;8.67;78.09
3780;BME280;1905;52.482;9.802;2022-09-21T01:08:52;102108.28;;;8.67;78.71
3780;BME280;1905;52.482;9.802;2022-09-21T01:11:28;102108.31;;;8.64;78.97
3780;BME280;1905;52.482;9.802;2022-09-21T01:14:10;102108.38;;;8.61;78.91
3780;BME280;1905;52.482;9.802;2022-09-21T01:16:47;102107.50;;;8.59;78.25
3780;BME280;1905;52.482;9.802;2022-09-21T01:19:32;102111.94;;;8.57;78.19
3780;BME280;1905;52.482;9.802;2022-09-21T01:22:12;102106.66;;;8.57;78.66
3780;BME280;1905;52.482;9.802;2022-09-21T01:24:51;102107.63;;;8.53;78.08
3780;BME280;1905;52.482;9.802;2022-09-21T01:27:38;102112.88;;;8.53;78.39
3780;BME280;1905;52.482;9.802;2022-09-21T01:30:14;102112.91;;;8.49;78.58
3780;BME280;1905;52.482;9.802;2022-09-21T01:32:47;102114.66;;;8.48;78.60
3780;BME280;1905;52.482;9.802;2022-09-21T01:35:21;102113.81;;;8.48;78.58
3780;BME280;1905;52.482;9.802;2022-09-21T01:37:52;102115.72;;;8.36;78.53
3780;BME280;1905;52.482;9.802;2022-09-21T01:40:25;102125.31;;;8.39;78.87
3780;BME280;1905;52.482;9.802;2022-09-21T01:43:01;102121.81;;;8.37;78.20
3780;BME280;1905;52.482;9.802;2022-09-21T01:45:35;102127.19;;;8.31;78.10
3780;BME280;1905;52.482;9.802;2022-09-21T01:48:06;102122.75;;;8.33;78.97
3780;BME280;1905;52.482;9.802;2022-09-21T01:50:37;102126.25;;;8.32;78.84
3780;BME280;1905;52.482;9.802;2022-09-21T01:53:09;102119.28;;;8.31;78.24
3780;BME280;1905;52.482;9.802;2022-09-21T01:55:41;102122.81;;;8.27;78.14
3780;BME280;1905;52.482;9.802;2022-09-21T01:58:15;102121.97;;;8.23;79.05
3780;BME280;1905;52.482;9.802;2022-09-21T02:00:47;102118.47;;;8.21;79.18
3780;BME280;1905;52.482;9.802;2022-09-21T02:03:21;102122.91;;;8.18;78.28
3780;BME280;1905;52.482;9.802;2022-09-21T02:05:55;102122.88;;;8.19;78.66
3780;BME280;1905;52.482;9.802;2022-09-21T02:08:23;102124.63;;;8.19;78.52
3780;BME280;1905;52.482;9.802;2022-09-21T02:10:53;102124.66;;;8.16;79.09
3780;BME280;1905;52.482;9.802;2022-09-21T02:13:23;102114.22;;;8.10;78.43
3780;BME280;1905;52.482;9.802;2022-09-21T02:16:03;102128.25;;;8.09;78.81
3780;BME280;1905;52.482;9.802;2022-09-21T02:18:42;102121.22;;;8.08;78.74
3780;BME280;1905;52.482;9.802;2022-09-21T02:21:22;102119.53;;;8.04;79.24
3780;BME280;1905;52.482;9.802;2022-09-21T02:23:58;102114.25;;;8.07;78.86
3780;BME280;1905;52.482;9.802;2022-09-21T02:26:33;102116.94;;;8.01;78.71
3780;BME280;1905;52.482;9.802;2022-09-21T02:29:09;102122.25;;;7.96;79.02
3780;BME280;1905;52.482;9.802;2022-09-21T02:31:49;102113.44;;;7.97;78.57
3780;BME280;1905;52.482;9.802;2022-09-21T02:34:23;102118.75;;;7.94;79.34
3780;BME280;1905;52.482;9.802;2022-09-21T02:36:57;102111.78;;;7.90;78.62
3780;BME280;1905;52.482;9.802;2022-09-21T02:39:31;102115.28;;;7.89;79.06
3780;BME280;1905;52.482;9.802;2022-09-21T02:42:03;102115.28;;;7.91;78.72
3780;BME280;1905;52.482;9.802;2022-09-21T02:44:37;102113.59;;;7.85;78.67
3780;BME280;1905;52.482;9.802;2022-09-21T02:47:10;102111.88;;;7.78;78.82
3780;BME280;1905;52.482;9.802;2022-09-21T02:49:43;102111.00;;;7.77;79.27
3780;BME280;1905;52.482;9.802;2022-09-21T02:52:14;102112.75;;;7.78;79.13
3780;BME280;1905;52.482;9.802;2022-09-21T02:54:45;102116.28;;;7.76;78.88
3780;BME280;1905;52.482;9.802;2022-09-21T02:57:15;102111.91;;;7.75;78.96
3780;BME280;1905;52.482;9.802;2022-09-21T02:59:44;102123.31;;;7.72;79.05
3780;BME280;1905;52.482;9.802;2022-09-21T03:02:13;102126.00;;;7.68;79.53
3780;BME280;1905;52.482;9.802;2022-09-21T03:04:42;102122.50;;;7.69;79.30
3780;BME280;1905;52.482;9.802;2022-09-21T03:07:13;102130.41;;;7.64;79.01
3780;BME280;1905;52.482;9.802;2022-09-21T03:09:40;102127.84;;;7.60;78.91
3780;BME280;1905;52.482;9.802;2022-09-21T03:12:08;102126.94;;;7.59;79.34
3780;BME280;1905;52.482;9.802;2022-09-21T03:14:35;102134.84;;;7.61;79.40
3780;BME280;1905;52.482;9.802;2022-09-21T03:17:03;102132.22;;;7.59;79.37
3780;BME280;1905;52.482;9.802;2022-09-21T03:19:32;102132.22;;;7.56;79.50
3780;BME280;1905;52.482;9.802;2022-09-21T03:21:59;102136.56;;;7.62;79.39
3780;BME280;1905;52.482;9.802;2022-09-21T03:24:27;102135.78;;;7.52;79.53
3780;BME280;1905;52.482;9.802;2022-09-21T03:27:13;102139.28;;;7.51;79.06
3780;BME280;1905;52.482;9.802;2022-09-21T03:29:41;102142.78;;;7.50;79.26
3780;BME280;1905;52.482;9.802;2022-09-21T03:32:09;102145.47;;;7.43;79.82
3780;BME280;1905;52.482;9.802;2022-09-21T03:34:38;102139.28;;;7.51;79.31
3780;BME280;1905;52.482;9.802;2022-09-21T03:37:10;102148.97;;;7.46;79.68
3780;BME280;1905;52.482;9.802;2022-09-21T03:39:37;102151.59;;;7.46;79.31
3780;BME280;1905;52.482;9.802;2022-09-21T03:42:05;102154.31;;;7.36;79.86
3780;BME280;1905;52.482;9.802;2022-09-21T03:44:34;102153.41;;;7.35;79.96
3780;BME280;1905;52.482;9.802;2022-09-21T03:47:02;102149.91;;;7.36;79.33
3780;BME280;1905;52.482;9.802;2022-09-21T03:49:32;102148.19;;;7.32;79.18
3780;BME280;1905;52.482;9.802;2022-09-21T03:52:01;102148.16;;;7.35;79.06
3780;BME280;1905;52.482;9.802;2022-09-21T03:54:29;102143.81;;;7.30;79.57
3780;BME280;1905;52.482;9.802;2022-09-21T03:56:57;102146.44;;;7.31;79.95
3780;BME280;1905;52.482;9.802;2022-09-21T03:59:24;102162.19;;;7.31;79.42
3780;BME280;1905;52.482;9.802;2022-09-21T04:01:51;102156.13;;;7.25;79.68
3780;BME280;1905;52.482;9.802;2022-09-21T04:04:19;102151.75;;;7.25;79.46
3780;BME280;1905;52.482;9.802;2022-09-21T04:06:46;102148.31;;;7.17;79.73
3780;BME280;1905;52.482;9.802;2022-09-21T04:09:15;102151.78;;;7.16;80.13
3780;BME280;1905;52.482;9.802;2022-09-21T04:11:43;102154.41;;;7.16;80.06
3780;BME280;1905;52.482;9.802;2022-09-21T04:14:11;102158.75;;;7.23;79.45
3780;BME280;1905;52.482;9.802;2022-09-21T04:16:39;102153.56;;;7.14;79.47
3780;BME280;1905;52.482;9.802;2022-09-21T04:19:06;102153.56;;;7.14;79.72
3780;BME280;1905;52.482;9.802;2022-09-21T04:21:34;102161.44;;;7.09;79.50
3780;BME280;1905;52.482;9.802;2022-09-21T04:24:02;102162.34;;;7.04;79.95
3780;BME280;1905;52.482;9.802;2022-09-21T04:26:33;102160.59;;;7.09;79.63
3780;BME280;1905;52.482;9.802;2022-09-21T04:29:01;102157.06;;;7.10;79.31
3780;BME280;1905;52.482;9.802;2022-09-21T04:31:29;102156.25;;;7.06;79.57
3780;BME280;1905;52.482;9.802;2022-09-21T04:33:57;102157.09;;;7.07;79.49
3780;BME280;1905;52.482;9.802;2022-09-21T04:36:27;102156.25;;;7.02;79.72
3780;BME280;1905;52.482;9.802;2022-09-21T04:39:01;102155.38;;;7.03;79.75
3780;BME280;1905;52.482;9.802;2022-09-21T04:41:28;102160.66;;;7.00;79.53
3780;BME280;1905;52.482;9.802;2022-09-21T04:43:57;102159.75;;;6.99;79.89
3780;BME280;1905;52.482;9.802;2022-09-21T04:46:25;102164.13;;;6.99;79.82
3780;BME280;1905;52.482;9.802;2022-09-21T04:48:52;102163.28;;;7.00;79.79
3780;BME280;1905;52.482;9.802;2022-09-21T04:51:20;102169.41;;;6.96;79.88
3780;BME280;1905;52.482;9.802;2022-09-21T04:53:47;102166.81;;;6.91;79.60
3780;BME280;1905;52.482;9.802;2022-09-21T04:56:15;102174.69;;;6.93;80.02
3780;BME280;1905;52.482;9.802;2022-09-21T04:58:43;102179.06;;;6.91;79.74
3780;BME280;1905;52.482;9.802;2022-09-21T05:01:12;102177.31;;;6.88;79.92
3780;BME280;1905;52.482;9.802;2022-09-21T05:03:40;102167.69;;;6.90;79.76
3780;BME280;1905;52.482;9.802;2022-09-21T05:06:08;102166.84;;;6.90;79.62
3780;BME280;1905;52.482;9.802;2022-09-21T05:08:38;102172.94;;;6.90;79.53
3780;BME280;1905;52.482;9.802;2022-09-21T05:11:24;102183.44;;;6.89;79.74
3780;BME280;1905;52.482;9.802;2022-09-21T05:13:52;102179.97;;;6.84;80.47
3780;BME280;1905;52.482;9.802;2022-09-21T05:16:21;102175.59;;;6.86;79.68
3780;BME280;1905;52.482;9.802;2022-09-21T05:18:51;102181.75;;;6.82;80.02
3780;BME280;1905;52.482;9.802;2022-09-21T05:21:19;102190.47;;;6.84;80.00
3780;BME280;1905;52.482;9.802;2022-09-21T05:23:47;102188.72;;;6.86;79.61
3780;BME280;1905;52.482;9.802;2022-09-21T05:26:14;102187.84;;;6.82;79.87
3780;BME280;1905;52.482;9.802;2022-09-21T05:28:42;102188.72;;;6.83;79.42
3780;BME280;1905;52.482;9.802;2022-09-21T05:31:20;102193.09;;;6.87;79.50
3780;BME280;1905;52.482;9.802;2022-09-21T05:33:56;102196.59;;;6.83;79.62
3780;BME280;1905;52.482;9.802;2022-09-21T05:36:36;102188.69;;;6.92;79.17
3780;BME280;1905;52.482;9.802;2022-09-21T05:39:06;102200.09;;;6.89;79.43
3780;BME280;1905;52.482;9.802;2022-09-21T05:41:35;102195.72;;;6.87;79.69
3780;BME280;1905;52.482;9.802;2022-09-21T05:44:03;102198.34;;;6.93;79.58
3780;BME280;1905;52.482;9.802;2022-09-21T05:46:36;102204.44;;;6.95;79.27
3780;BME280;1905;52.482;9.802;2022-09-21T05:49:12;102201.81;;;6.92;78.94
3780;BME280;1905;52.482;9.802;2022-09-21T05:51:46;102204.44;;;6.90;79.40
3780;BME280;1905;52.482;9.802;2022-09-21T05:54:21;102207.94;;;6.95;78.94
3780;BME280;1905;52.482;9.802;2022-09-21T05:56:56;102200.94;;;6.94;79.16
3780;BME280;1905;52.482;9.802;2022-09-21T05:59:40;102202.69;;;6.97;79.26
3780;BME280;1905;52.482;9.802;2022-09-21T06:02:18;102208.81;;;6.97;79.02
3780;BME280;1905;52.482;9.802;2022-09-21T06:04:52;102214.03;;;6.96;78.93
3780;BME280;1905;52.482;9.802;2022-09-21T06:07:22;102214.03;;;6.99;78.93
3780;BME280;1905;52.482;9.802;2022-09-21T06:09:50;102223.66;;;7.03;78.93
3780;BME280;1905;52.482;9.802;2022-09-21T06:12:17;102225.38;;;7.07;78.68
3780;BME280;1905;52.482;9.802;2022-09-21T06:14:45;102221.00;;;7.10;78.22
3780;BME280;1905;52.482;9.802;2022-09-21T06:17:12;102230.63;;;7.07;78.54
3780;BME280;1905;52.482;9.802;2022-09-21T06:19:40;102226.25;;;7.10;78.21
3780;BME280;1905;52.482;9.802;2022-09-21T06:22:09;102229.75;;;7.14;78.40
3780;BME280;1905;52.482;9.802;2022-09-21T06:24:36;102235.88;;;7.14;78.73
3780;BME280;1905;52.482;9.802;2022-09-21T06:27:04;102230.59;;;7.19;77.97
3780;BME280;1905;52.482;9.802;2022-09-21T06:29:32;102229.69;;;7.22;77.70
3780;BME280;1905;52.482;9.802;2022-09-21T06:32:00;102234.06;;;7.21;78.59
3780;BME280;1905;52.482;9.802;2022-09-21T06:34:31;102238.44;;;7.20;78.38
3780;BME280;1905;52.482;9.802;2022-09-21T06:36:59;102232.28;;;7.26;78.19
3780;BME280;1905;52.482;9.802;2022-09-21T06:39:28;102233.16;;;7.30;78.63
3780;BME280;1905;52.482;9.802;2022-09-21T06:41:56;102225.25;;;7.34;77.39
3780;BME280;1905;52.482;9.802;2022-09-21T06:44:24;102234.00;;;7.36;77.50
3780;BME280;1905;52.482;9.802;2022-09-21T06:46:52;102225.22;;;7.40;77.38
3780;BME280;1905;52.482;9.802;2022-09-21T06:49:19;102232.19;;;7.47;77.11
3780;BME280;1905;52.482;9.802;2022-09-21T06:51:47;102232.19;;;7.47;77.04
3780;BME280;1905;52.482;9.802;2022-09-21T06:54:15;102239.19;;;7.48;77.71
3780;BME280;1905;52.482;9.802;2022-09-21T06:56:45;102240.03;;;7.53;77.20
3780;BME280;1905;52.482;9.802;2022-09-21T06:59:12;102235.66;;;7.54;76.53
3780;BME280;1905;52.482;9.802;2022-09-21T07:01:40;102235.66;;;7.52;77.22
3780;BME280;1905;52.482;9.802;2022-09-21T07:04:31;102240.84;;;7.64;76.95
3780;BME280;1905;52.482;9.802;2022-09-21T07:06:59;102233.78;;;7.69;77.01
3780;BME280;1905;52.482;9.802;2022-09-21T07:09:30;102232.94;;;7.69;76.73
3780;BME280;1905;52.482;9.802;2022-09-21T07:12:19;102234.66;;;7.71;77.09
3780;BME280;1905;52.482;9.802;2022-09-21T07:14:46;102236.38;;;7.77;77.21
3780;BME280;1905;52.482;9.802;2022-09-21T07:17:14;102236.34;;;7.78;76.84
3780;BME280;1905;52.482;9.802;2022-09-21T07:19:41;102240.75;;;7.76;76.78
3780;BME280;1905;52.482;9.802;2022-09-21T07:22:09;102240.75;;;7.79;76.94
3780;BME280;1905;52.482;9.802;2022-09-21T07:24:36;102240.69;;;7.86;77.19
3780;BME280;1905;52.482;9.802;2022-09-21T07:27:04;102244.19;;;7.88;79.11
3780;BME280;1905;52.482;9.802;2022-09-21T07:29:32;102238.94;;;7.88;77.57
3780;BME280;1905;52.482;9.802;2022-09-21T07:32:00;102242.44;;;7.87;77.29
3780;BME280;1905;52.482;9.802;2022-09-21T07:34:28;102239.75;;;7.96;81.81
3780;BME280;1905;52.482;9.802;2022-09-21T07:36:55;102247.63;;;7.99;82.71
3780;BME280;1905;52.482;9.802;2022-09-21T07:39:23;102248.44;;;8.07;83.10
3780;BME280;1905;52.482;9.802;2022-09-21T07:41:50;102244.91;;;8.09;81.48
3780;BME280;1905;52.482;9.802;2022-09-21T07:44:18;102240.38;;;8.22;83.90
3780;BME280;1905;52.482;9.802;2022-09-21T07:46:48;102242.97;;;8.26;84.22
3780;BME280;1905;52.482;9.802;2022-09-21T07:49:15;102241.16;;;8.36;85.52
3780;BME280;1905;52.482;9.802;2022-09-21T07:51:43;102242.84;;;8.43;85.72
3780;BME280;1905;52.482;9.802;2022-09-21T07:54:11;102241.06;;;8.47;85.37
3780;BME280;1905;52.482;9.802;2022-09-21T07:56:40;102242.81;;;8.48;85.36
3780;BME280;1905;52.482;9.802;2022-09-21T07:59:28;102246.22;;;8.59;85.58
3780;BME280;1905;52.482;9.802;2022-09-21T08:01:59;102242.72;;;8.58;84.42
3780;BME280;1905;52.482;9.802;2022-09-21T08:04:27;102242.69;;;8.61;84.99
3780;BME280;1905;52.482;9.802;2022-09-21T08:06:54;102244.28;;;8.74;86.61
3780;BME280;1905;52.482;9.802;2022-09-21T08:09:22;102245.94;;;8.81;85.87
3780;BME280;1905;52.482;9.802;2022-09-21T08:11:49;102244.94;;;8.91;86.97
3780;BME280;1905;52.482;9.802;2022-09-21T08:14:18;102244.06;;;8.94;86.05
3780;BME280;1905;52.482;9.802;2022-09-21T08:16:51;102247.47;;;9.01;87.14
3780;BME280;1905;52.482;9.802;2022-09-21T08:19:20;102247.41;;;9.07;86.70
3780;BME280;1905;52.482;9.802;2022-09-21T08:21:51;102249.88;;;9.19;87.23
3780;BME280;1905;52.482;9.802;2022-09-21T08:24:23;102245.41;;;9.25;87.35
3780;BME280;1905;52.482;9.802;2022-09-21T08:26:52;102253.25;;;9.31;87.91
3780;BME280;1905;52.482;9.802;2022-09-21T08:29:20;102251.34;;;9.41;87.06
3780;BME280;1905;52.482;9.802;2022-09-21T08:31:48;102245.91;;;9.53;87.36
3780;BME280;1905;52.482;9.802;2022-09-21T08:34:15;102249.31;;;9.61;88.86
3780;BME280;1905;52.482;9.802;2022-09-21T08:36:46;102247.53;;;9.63;87.38
3780;BME280;1905;52.482;9.802;2022-09-21T08:39:20;102239.44;;;9.75;87.83
3780;BME280;1905;52.482;9.802;2022-09-21T08:42:03;102241.88;;;9.87;86.87
3780;BME280;1905;52.482;9.802;2022-09-21T08:44:38;102241.91;;;9.86;86.67
3780;BME280;1905;52.482;9.802;2022-09-21T08:47:11;102232.84;;;10.02;87.09
3780;BME280;1905;52.482;9.802;2022-09-21T08:49:45;102241.66;;;10.02;86.33
3780;BME280;1905;52.482;9.802;2022-09-21T08:52:18;102238.84;;;10.11;85.79
3780;BME280;1905;52.482;9.802;2022-09-21T08:54:52;102243.13;;;10.20;85.08
3780;BME280;1905;52.482;9.802;2022-09-21T08:57:23;102244.94;;;10.16;83.15
3780;BME280;1905;52.482;9.802;2022-09-21T08:59:52;102250.81;;;10.34;84.69
3780;BME280;1905;52.482;9.802;2022-09-21T09:02:37;102250.72;;;10.38;84.36
3780;BME280;1905;52.482;9.802;2022-09-21T09:05:19;102249.69;;;10.47;84.33
3780;BME280;1905;52.482;9.802;2022-09-21T09:11:00;102247.31;;;10.79;85.56
3780;BME280;1905;52.482;9.802;2022-09-21T09:13:45;102247.25;;;10.82;85.18
3780;BME280;1905;52.482;9.802;2022-09-21T09:16:21;102252.44;;;10.88;84.72
3780;BME280;1905;52.482;9.802;2022-09-21T09:18:54;102255.91;;;10.90;83.77
3780;BME280;1905;52.482;9.802;2022-09-21T09:21:26;102254.78;;;11.03;85.03
3780;BME280;1905;52.482;9.802;2022-09-21T09:24:09;102256.13;;;11.22;85.06
3780;BME280;1905;52.482;9.802;2022-09-21T09:26:41;102250.22;;;11.11;84.48
3780;BME280;1905;52.482;9.802;2022-09-21T09:29:17;102256.75;;;11.33;84.09
3780;BME280;1905;52.482;9.802;2022-09-21T09:31:47;102255.91;;;11.33;83.20
3780;BME280;1905;52.482;9.802;2022-09-21T09:34:17;102249.69;;;11.35;82.92
3780;BME280;1905;52.482;9.802;2022-09-21T09:36:51;102254.69;;;11.48;83.03
3780;BME280;1905;52.482;9.802;2022-09-21T09:39:27;102242.16;;;11.56;82.81
3780;BME280;1905;52.482;9.802;2022-09-21T09:42:23;102251.97;;;11.52;81.77
3780;BME280;1905;52.482;9.802;2022-09-21T09:45:07;102256.94;;;11.66;82.00
3780;BME280;1905;52.482;9.802;2022-09-21T09:47:49;102251.50;;;11.73;81.45
3780;BME280;1905;52.482;9.802;2022-09-21T09:50:24;102251.38;;;11.78;80.77
3780;BME280;1905;52.482;9.802;2022-09-21T09:52:58;102243.44;;;11.78;80.54
3780;BME280;1905;52.482;9.802;2022-09-21T09:55:36;102245.97;;;11.82;80.72
3780;BME280;1905;52.482;9.802;2022-09-21T09:58:08;102254.09;;;11.76;80.04
3780;BME280;1905;52.482;9.802;2022-09-21T10:00:43;102246.78;;;11.86;80.49
3780;BME280;1905;52.482;9.802;2022-09-21T10:03:15;102245.56;;;11.99;80.63
3780;BME280;1905;52.482;9.802;2022-09-21T10:05:44;102250.81;;;12.02;80.72
3780;BME280;1905;52.482;9.802;2022-09-21T10:08:38;102246.91;;;12.17;80.82
3780;BME280;1905;52.482;9.802;2022-09-21T10:11:09;102248.69;;;12.16;80.11
3780;BME280;1905;52.482;9.802;2022-09-21T10:13:38;102237.00;;;12.25;80.31
3780;BME280;1905;52.482;9.802;2022-09-21T10:16:12;102235.03;;;12.31;80.16
3780;BME280;1905;52.482;9.802;2022-09-21T10:18:44;102242.31;;;12.23;79.47
3780;BME280;1905;52.482;9.802;2022-09-21T10:21:17;102231.56;;;12.29;80.00
3780;BME280;1905;52.482;9.802;2022-09-21T10:23:46;102231.41;;;12.35;80.31
3780;BME280;1905;52.482;9.802;2022-09-21T10:26:17;102235.63;;;12.42;79.90
3780;BME280;1905;52.482;9.802;2022-09-21T10:28:56;102228.56;;;12.43;79.27
3780;BME280;1905;52.482;9.802;2022-09-21T10:31:26;102229.66;;;12.34;79.11
3780;BME280;1905;52.482;9.802;2022-09-21T10:34:05;102229.50;;;12.40;78.43
3780;BME280;1905;52.482;9.802;2022-09-21T10:36:35;102232.66;;;12.54;78.42
3780;BME280;1905;52.482;9.802;2022-09-21T10:39:24;102228.78;;;12.68;78.05
3780;BME280;1905;52.482;9.802;2022-09-21T10:41:58;102229.56;;;12.71;77.86
3780;BME280;1905;52.482;9.802;2022-09-21T10:44:28;102235.63;;;12.75;77.99
3780;BME280;1905;52.482;9.802;2022-09-21T10:47:01;102224.84;;;12.81;77.98
3780;BME280;1905;52.482;9.802;2022-09-21T10:49:32;102230.25;;;12.78;77.56
3780;BME280;1905;52.482;9.802;2022-09-21T10:52:00;102226.44;;;12.88;77.03
3780;BME280;1905;52.482;9.802;2022-09-21T10:54:31;102230.72;;;12.92;75.87
3780;BME280;1905;52.482;9.802;2022-09-21T10:57:07;102226.38;;;12.91;76.08
3780;BME280;1905;52.482;9.802;2022-09-21T10:59:36;102222.53;;;13.01;74.94
3780;BME280;1905;52.482;9.802;2022-09-21T11:02:24;102217.94;;;13.07;75.70
3780;BME280;1905;52.482;9.802;2022-09-21T11:04:56;102228.22;;;13.18;73.20
3780;BME280;1905;52.482;9.802;2022-09-21T11:07:29;102220.09;;;13.24;73.29
3780;BME280;1905;52.482;9.802;2022-09-21T11:10:08;102221.13;;;13.19;74.33
3780;BME280;1905;52.482;9.802;2022-09-21T11:12:46;102224.91;;;13.11;75.41
3780;BME280;1905;52.482;9.802;2022-09-21T11:15:24;102221.66;;;13.31;73.73
3780;BME280;1905;52.482;9.802;2022-09-21T11:18:01;102216.91;;;13.41;73.82
3780;BME280;1905;52.482;9.802;2022-09-21T11:20:37;102219.53;;;13.42;71.71
3780;BME280;1905;52.482;9.802;2022-09-21T11:23:12;102218.34;;;13.52;71.03
3780;BME280;1905;52.482;9.802;2022-09-21T11:25:48;102223.59;;;13.54;70.71
3780;BME280;1905;52.482;9.802;2022-09-21T11:28:25;102214.56;;;13.59;70.98
3780;BME280;1905;52.482;9.802;2022-09-21T11:31:16;102206.50;;;13.62;71.72
3780;BME280;1905;52.482;9.802;2022-09-21T11:34:07;102218.44;;;13.77;71.78
3780;BME280;1905;52.482;9.802;2022-09-21T11:36:44;102212.09;;;13.81;71.27
3780;BME280;1905;52.482;9.802;2022-09-21T11:39:17;102214.66;;;13.84;71.83
3780;BME280;1905;52.482;9.802;2022-09-21T11:42:01;102205.31;;;13.99;72.12
3780;BME280;1905;52.482;9.802;2022-09-21T11:44:46;102201.13;;;14.18;69.10
3780;BME280;1905;52.482;9.802;2022-09-21T11:47:28;102205.03;;;14.34;68.86
3780;BME280;1905;52.482;9.802;2022-09-21T11:50:15;102200.50;;;14.36;70.00
3780;BME280;1905;52.482;9.802;2022-09-21T11:53:14;102195.19;;;14.36;69.89
3780;BME280;1905;52.482;9.802;2022-09-21T11:56:00;102197.91;;;14.35;69.65
3780;BME280;1905;52.482;9.802;2022-09-21T11:58:35;102196.09;;;14.35;70.84
3780;BME280;1905;52.482;9.802;2022-09-21T12:01:23;102188.03;;;14.38;70.66
3780;BME280;1905;52.482;9.802;2022-09-21T12:04:17;102195.00;;;14.42;70.49
3780;BME280;1905;52.482;9.802;2022-09-21T12:06:59;102189.69;;;14.42;70.82
3780;BME280;1905;52.482;9.802;2022-09-21T12:12:38;102193.03;;;14.47;70.23
3780;BME280;1905;52.482;9.802;2022-09-21T12:15:14;102184.94;;;14.50;70.08
3780;BME280;1905;52.482;9.802;2022-09-21T12:17:51;102188.19;;;14.58;70.09
3780;BME280;1905;52.482;9.802;2022-09-21T12:20:26;102178.47;;;14.57;69.94
3780;BME280;1905;52.482;9.802;2022-09-21T12:23:00;102182.50;;;14.69;68.88
3780;BME280;1905;52.482;9.802;2022-09-21T12:25:32;102181.41;;;14.74;69.46
3780;BME280;1905;52.482;9.802;2022-09-21T12:28:06;102183.19;;;14.74;69.61
3780;BME280;1905;52.482;9.802;2022-09-21T12:30:37;102173.31;;;14.77;68.86
3780;BME280;1905;52.482;9.802;2022-09-21T12:33:11;102175.75;;;14.83;66.98
3780;BME280;1905;52.482;9.802;2022-09-21T12:35:43;102173.09;;;14.83;67.87
3780;BME280;1905;52.482;9.802;2022-09-21T12:38:15;102166.69;;;14.89;67.27
3780;BME280;1905;52.482;9.802;2022-09-21T12:40:48;102172.03;;;14.87;66.71
3780;BME280;1905;52.482;9.802;2022-09-21T12:43:39;102169.84;;;14.99;66.37
3780;BME280;1905;52.482;9.802;2022-09-21T12:46:13;102164.53;;;14.99;66.84
3780;BME280;1905;52.482;9.802;2022-09-21T12:48:44;102164.31;;;15.03;67.51
3780;BME280;1905;52.482;9.802;2022-09-21T12:51:16;102167.75;;;15.07;68.03
3780;BME280;1905;52.482;9.802;2022-09-21T12:53:46;102165.06;;;15.08;67.19
3780;BME280;1905;52.482;9.802;2022-09-21T12:56:23;102161.25;;;15.14;66.78
3780;BME280;1905;52.482;9.802;2022-09-21T12:59:05;102158.34;;;15.20;66.56
3780;BME280;1905;52.482;9.802;2022-09-21T13:01:40;102155.66;;;15.21;67.45
3780;BME280;1905;52.482;9.802;2022-09-21T13:04:34;102159.00;;;15.26;67.01
3780;BME280;1905;52.482;9.802;2022-09-21T13:07:27;102163.38;;;15.27;68.07
3780;BME280;1905;52.482;9.802;2022-09-21T13:10:00;102152.81;;;15.26;67.32
3780;BME280;1905;52.482;9.802;2022-09-21T13:12:31;102154.16;;;15.36;68.34
3780;BME280;1905;52.482;9.802;2022-09-21T13:15:12;102148.72;;;15.39;65.35
3780;BME280;1905;52.482;9.802;2022-09-21T13:17:41;102146.72;;;15.44;65.99
3780;BME280;1905;52.482;9.802;2022-09-21T13:20:17;102143.88;;;15.50;66.66
3780;BME280;1905;52.482;9.802;2022-09-21T13:22:46;102142.94;;;15.51;65.23
3780;BME280;1905;52.482;9.802;2022-09-21T13:25:20;102138.97;;;15.61;67.62
3780;BME280;1905;52.482;9.802;2022-09-21T13:28:00;102139.75;;;15.63;67.33
3780;BME280;1905;52.482;9.802;2022-09-21T13:30:35;102138.84;;;15.64;66.73
3780;BME280;1905;52.482;9.802;2022-09-21T13:33:30;102134.06;;;15.72;67.03
3780;BME280;1905;52.482;9.802;2022-09-21T13:36:09;102142.81;;;15.76;67.88
3780;BME280;1905;52.482;9.802;2022-09-21T13:38:56;102139.94;;;15.80;68.20
3780;BME280;1905;52.482;9.802;2022-09-21T13:41:26;102140.72;;;15.82;66.81
3780;BME280;1905;52.482;9.802;2022-09-21T13:44:21;102135.28;;;15.85;67.94
3780;BME280;1905;52.482;9.802;2022-09-21T13:47:03;102130.50;;;15.93;67.83
3780;BME280;1905;52.482;9.802;2022-09-21T13:49:38;102127.78;;;15.95;68.64
3780;BME280;1905;52.482;9.802;2022-09-21T13:52:34;102130.31;;;15.98;69.44
3780;BME280;1905;52.482;9.802;2022-09-21T13:55:14;102124.16;;;15.96;68.63